CYLK

Lutselk'e Airport

Lutselk'e, Northwest Territories, Canada
METAR CYLK 170000Z 10003KT 25SM FEW012 SCT190 BKN200 M07/M11 A3016 RMK SF1AC3CC2 SF TR -5.5/-9.0/0/3.6 SNW CVR/MUCH LOOSE LAST STFD OBS/NEXT 171400 UTC SLP233
Observed Flight Rules
Oct-17 @ 00:00 UTC (3 hours ago) Visual Flight Rules
Wind Visibility Clouds
100° at 3 knots 25 miles
  • Few at 1,200' AGL
  • Scattered at 19,000' AGL
  • Broken at 20,000' AGL
Temperatures Readings
Current -7°C / 19°F
Dewpoint -11°C / 12°F
Humidity 73%
Altimeter 30.16" Hg
Pressure 1023.3 hPa
Elevation 179
METAR CYLK 170000Z 10003KT 25SM FEW012 SCT190 BKN200 M07/M11 A3016 RMK SF1AC3CC2 SF TR -5.5/-9.0/0/3.6 SNW CVR/MUCH LOOSE LAST STFD OBS/NEXT 171400 UTC SLP233
Observed Flight Rules
Oct-17 @ 00:00 UTC
(3 hours ago)
VFR
Wind Visibility
100° at 3 knots 25 miles
Clouds
  • Few at 1,200' AGL
  • Scattered at 19,000' AGL
  • Broken at 20,000' AGL
Temperature Dewpoint
-7°C / 19°F -11°C / 12°F
Humidity Altimeter Pressure
73% 30.16" Hg 1023.3 hPa